Time;durP1;ratioP1;P1;durP2;ratioP2;P2;SDS_P1;SDS_P2;PMS_P1;PMS_P2;Temp;Humidity;BMP_temperature;BMP_pressure;BME280_temperature;BME280_humidity;BME280_pressure;Samples;Min_cycle;Max_cycle;Signal;HPM_P1;HPM_P2
2023/01/04 00:00:13;;;;;;;;;;;;;;;;;;1023267;29;19980;-79
2023/01/04 00:00:44;;;;;;;;;;;;;;;;;;1023317;29;19914;-77
2023/01/04 00:01:14;;;;;;;;;;;;;;;;;;1023628;28;19914;-78
2023/01/04 00:01:45;;;;;;;;;;;;;;;;;;1027276;28;20096;-78
2023/01/04 00:02:16;;;;;;;;;;;;;;;;;;1023319;29;20381;-79
2023/01/04 00:02:47;;;;;;;;;;;;;;;;;;1023445;29;19966;-78
2023/01/04 00:03:18;;;;;;;;;;;;;;;;;;1023349;29;19914;-78
2023/01/04 00:03:49;;;;;;;;;;;;;;;;;;1023811;28;20386;-77
2023/01/04 00:04:20;;;;;;;;;;;;;;;;;;1027583;28;19952;-79
2023/01/04 00:04:51;;;;;;;;;;;;;;;;;;1023130;29;20485;-78
2023/01/04 00:05:21;;;;;;;;;;;;;;;;;;1023348;29;19915;-77
2023/01/04 00:05:52;;;;;;;;;;;;;;;;;;1023245;29;19950;-78
2023/01/04 00:06:23;;;;;;;;;;;;;;;;;;1023447;29;20564;-77
2023/01/04 00:06:55;;;;;;;;;;;;;;;;;;1023082;29;19914;-78
2023/01/04 00:07:26;;;;;;;;;;;;;;;;;;1023035;29;20005;-77
2023/01/04 00:07:57;;;;;;;;;;;;;;;;;;1019225;29;19915;-78
2023/01/04 00:08:28;;;;;;;;;;;;;;;;;;1019709;29;20337;-77
2023/01/04 00:08:59;;;;;;;;;;;;;;;;;;1023633;28;19914;-78
2023/01/04 00:09:29;;;;;;;;;;;;;;;;;;1027333;28;20385;-78
2023/01/04 00:10:00;;;;;;;;;;;;;;;;;;1027073;28;19914;-78
2023/01/04 00:10:31;;;;;;;;;;;;;;;;;;1027361;28;19918;-78
2023/01/04 00:11:02;;;;;;;;;;;;;;;;;;1027403;28;19914;-78
2023/01/04 00:11:33;;;;;;;;;;;;;;;;;;1027441;28;20277;-80
2023/01/04 00:12:04;;;;;;;;;;;;;;;;;;1023439;29;19915;-79
2023/01/04 00:12:35;;;;;;;;;;;;;;;;;;1023168;29;19914;-77
2023/01/04 00:13:06;;;;;;;;;;;;;;;;;;1023411;29;19915;-78
2023/01/04 00:13:37;;;;;;;;;;;;;;;;;;1023385;28;20005;-78
2023/01/04 00:14:08;;;;;;;;;;;;;;;;;;1027321;28;19914;-78
2023/01/04 00:14:39;;;;;;;;;;;;;;;;;;1027363;28;19914;-78
2023/01/04 00:15:09;;;;;;;;;;;;;;;;;;1027492;28;20008;-76
2023/01/04 00:15:40;;;;;;;;;;;;;;;;;;1027426;28;19914;-78
2023/01/04 00:16:11;;;;;;;;;;;;;;;;;;1023307;29;19914;-77
2023/01/04 00:16:42;;;;;;;;;;;;;;;;;;1023084;29;20009;-78
2023/01/04 00:17:13;;;;;;;;;;;;;;;;;;1023513;29;19989;-78
2023/01/04 00:17:44;;;;;;;;;;;;;;;;;;1023295;29;19914;-78
2023/01/04 00:18:15;;;;;;;;;;;;;;;;;;1023458;29;19914;-77
2023/01/04 00:18:46;;;;;;;;;;;;;;;;;;1019201;29;19915;-78
2023/01/04 00:19:16;;;;;;;;;;;;;;;;;;1019658;29;20408;-77
2023/01/04 00:19:47;;;;;;;;;;;;;;;;;;1019076;29;20572;-78
2023/01/04 00:20:19;;;;;;;;;;;;;;;;;;1019696;29;19919;-79
2023/01/04 00:20:50;;;;;;;;;;;;;;;;;;1023380;29;19919;-78
2023/01/04 00:21:21;;;;;;;;;;;;;;;;;;1023780;28;20065;-78
2023/01/04 00:21:52;;;;;;;;;;;;;;;;;;1023061;29;19922;-77
2023/01/04 00:22:23;;;;;;;;;;;;;;;;;;1023464;29;19919;-78
2023/01/04 00:22:54;;;;;;;;;;;;;;;;;;1023157;29;20410;-78
2023/01/04 00:23:25;;;;;;;;;;;;;;;;;;1023646;28;19910;-78
2023/01/04 00:23:55;;;;;;;;;;;;;;;;;;1026899;28;19933;-78
2023/01/04 00:24:26;;;;;;;;;;;;;;;;;;1019625;29;20376;-78
2023/01/04 00:24:58;;;;;;;;;;;;;;;;;;1019426;29;19981;-79
2023/01/04 00:25:29;;;;;;;;;;;;;;;;;;1019238;29;19915;-77
2023/01/04 00:25:59;;;;;;;;;;;;;;;;;;1019649;29;19910;-78
2023/01/04 00:26:30;;;;;;;;;;;;;;;;;;1023278;29;20374;-79
2023/01/04 00:27:01;;;;;;;;;;;;;;;;;;1023558;28;19942;-78
2023/01/04 00:27:32;;;;;;;;;;;;;;;;;;1027642;28;19996;-78
2023/01/04 00:28:03;;;;;;;;;;;;;;;;;;1027652;28;20431;-78
2023/01/04 00:28:34;;;;;;;;;;;;;;;;;;1023185;29;19910;-79
2023/01/04 00:29:05;;;;;;;;;;;;;;;;;;1023308;29;19910;-78
2023/01/04 00:29:35;;;;;;;;;;;;;;;;;;1023063;29;19914;-78
2023/01/04 00:30:06;;;;;;;;;;;;;;;;;;1023652;28;20397;-78
2023/01/04 00:30:37;;;;;;;;;;;;;;;;;;1027016;28;19915;-77
2023/01/04 00:31:08;;;;;;;;;;;;;;;;;;1027510;28;19917;-78
2023/01/04 00:31:39;;;;;;;;;;;;;;;;;;1023041;29;19985;-77
2023/01/04 00:32:10;;;;;;;;;;;;;;;;;;1023133;29;19906;-77
2023/01/04 00:32:41;;;;;;;;;;;;;;;;;;1023356;29;19971;-78
2023/01/04 00:33:11;;;;;;;;;;;;;;;;;;1023588;28;20402;-81
2023/01/04 00:33:42;;;;;;;;;;;;;;;;;;1022876;29;20005;-77
2023/01/04 00:34:13;;;;;;;;;;;;;;;;;;1023549;29;20433;-78
2023/01/04 00:34:44;;;;;;;;;;;;;;;;;;1023086;29;19919;-77
2023/01/04 00:35:15;;;;;;;;;;;;;;;;;;1023295;29;20401;-77
2023/01/04 00:35:46;;;;;;;;;;;;;;;;;;1022976;29;19910;-77
2023/01/04 00:36:17;;;;;;;;;;;;;;;;;;1023310;29;19907;-77
2023/01/04 00:36:48;;;;;;;;;;;;;;;;;;1023599;28;20005;-77
2023/01/04 00:37:19;;;;;;;;;;;;;;;;;;1023195;29;19911;-77
2023/01/04 00:37:50;;;;;;;;;;;;;;;;;;1023029;29;19915;-78
2023/01/04 00:38:21;;;;;;;;;;;;;;;;;;1023432;29;20440;-78
2023/01/04 00:39:05;;;;;;;;;;;;;;;;;;1023275;28;19958;-78
2023/01/04 00:39:36;;;;;;;;;;;;;;;;;;1027478;28;19921;-78
2023/01/04 00:40:07;;;;;;;;;;;;;;;;;;1023166;29;20005;-78
2023/01/04 00:40:38;;;;;;;;;;;;;;;;;;1023185;28;20574;-77
2023/01/04 00:41:09;;;;;;;;;;;;;;;;;;1023392;29;19907;-78
2023/01/04 00:41:40;;;;;;;;;;;;;;;;;;1023442;28;19911;-77
2023/01/04 00:42:11;;;;;;;;;;;;;;;;;;1027299;28;20522;-78
2023/01/04 00:42:41;;;;;;;;;;;;;;;;;;1027232;28;20561;-78
2023/01/04 00:43:12;;;;;;;;;;;;;;;;;;1027437;28;19924;-78
2023/01/04 00:43:43;;;;;;;;;;;;;;;;;;1027426;28;20487;-78
2023/01/04 00:44:14;;;;;;;;;;;;;;;;;;1023289;29;19915;-78
2023/01/04 00:44:45;;;;;;;;;;;;;;;;;;1023194;29;20366;-78
2023/01/04 00:45:16;;;;;;;;;;;;;;;;;;1023399;29;19911;-78
2023/01/04 00:45:47;;;;;;;;;;;;;;;;;;1023438;28;19914;-78
2023/01/04 00:46:18;;;;;;;;;;;;;;;;;;1027527;28;19914;-78
2023/01/04 00:46:49;;;;;;;;;;;;;;;;;;1023211;29;19915;-78
2023/01/04 00:47:19;;;;;;;;;;;;;;;;;;1019205;29;20009;-78
2023/01/04 00:47:50;;;;;;;;;;;;;;;;;;1019309;29;19925;-78
2023/01/04 00:48:21;;;;;;;;;;;;;;;;;;1019595;29;19951;-78
2023/01/04 00:48:52;;;;;;;;;;;;;;;;;;1023252;28;19941;-77
2023/01/04 00:49:23;;;;;;;;;;;;;;;;;;1027204;28;19921;-77
2023/01/04 00:49:54;;;;;;;;;;;;;;;;;;1027116;28;19997;-78
2023/01/04 00:50:24;;;;;;;;;;;;;;;;;;1027345;28;19954;-77
2023/01/04 00:50:55;;;;;;;;;;;;;;;;;;1023122;29;19911;-78
2023/01/04 00:51:26;;;;;;;;;;;;;;;;;;1023323;29;20017;-78
2023/01/04 00:51:57;;;;;;;;;;;;;;;;;;1023058;29;19910;-77
2023/01/04 00:52:28;;;;;;;;;;;;;;;;;;1023362;29;19923;-78
2023/01/04 00:52:59;;;;;;;;;;;;;;;;;;1020403;29;19921;-79
2023/01/04 00:53:30;;;;;;;;;;;;;;;;;;1023310;29;19915;-78
2023/01/04 00:54:00;;;;;;;;;;;;;;;;;;1023138;29;19915;-78
2023/01/04 00:54:31;;;;;;;;;;;;;;;;;;1023066;28;19915;-79
2023/01/04 00:55:02;;;;;;;;;;;;;;;;;;1027143;28;19942;-78
2023/01/04 00:55:33;;;;;;;;;;;;;;;;;;1027178;28;20024;-78
2023/01/04 00:56:04;;;;;;;;;;;;;;;;;;1026997;28;19926;-79
2023/01/04 00:56:35;;;;;;;;;;;;;;;;;;1027001;28;20288;-79
2023/01/04 00:57:07;;;;;;;;;;;;;;;;;;1027055;28;20000;-77
2023/01/04 00:57:38;;;;;;;;;;;;;;;;;;1023199;29;19966;-78
2023/01/04 00:58:09;;;;;;;;;;;;;;;;;;1023704;28;20037;-78
2023/01/04 00:58:40;;;;;;;;;;;;;;;;;;1026964;28;19915;-79
2023/01/04 00:59:11;;;;;;;;;;;;;;;;;;1027315;28;19914;-79
2023/01/04 00:59:42;;;;;;;;;;;;;;;;;;1026426;28;19945;-78
2023/01/04 01:00:13;;;;;;;;;;;;;;;;;;1023098;29;20453;-78
2023/01/04 01:00:43;;;;;;;;;;;;;;;;;;1023372;29;19914;-77
2023/01/04 01:01:14;;;;;;;;;;;;;;;;;;1023147;29;19929;-78
2023/01/04 01:01:45;;;;;;;;;;;;;;;;;;1026414;28;19922;-78
2023/01/04 01:02:16;;;;;;;;;;;;;;;;;;1027156;28;19997;-77
2023/01/04 01:02:47;;;;;;;;;;;;;;;;;;1022740;29;19919;-79
2023/01/04 01:03:18;;;;;;;;;;;;;;;;;;1019386;29;20013;-78
2023/01/04 01:03:49;;;;;;;;;;;;;;;;;;1023019;29;19914;-77
2023/01/04 01:04:19;;;;;;;;;;;;;;;;;;1023369;29;19914;-77
2023/01/04 01:04:50;;;;;;;;;;;;;;;;;;1019797;29;20009;-78
2023/01/04 01:05:22;;;;;;;;;;;;;;;;;;1023237;29;19918;-79
2023/01/04 01:05:52;;;;;;;;;;;;;;;;;;1023021;29;19945;-78
2023/01/04 01:06:23;;;;;;;;;;;;;;;;;;1023090;29;19984;-78
2023/01/04 01:06:54;;;;;;;;;;;;;;;;;;1022923;29;19914;-77
2023/01/04 01:07:25;;;;;;;;;;;;;;;;;;1023359;29;19967;-76
2023/01/04 01:07:56;;;;;;;;;;;;;;;;;;1023033;28;19918;-80
2023/01/04 01:08:27;;;;;;;;;;;;;;;;;;1029882;28;20377;-77
2023/01/04 01:08:58;;;;;;;;;;;;;;;;;;1026606;28;19917;-77
2023/01/04 01:09:29;;;;;;;;;;;;;;;;;;1023219;29;19914;-78
2023/01/04 01:10:00;;;;;;;;;;;;;;;;;;1023151;29;19914;-77
2023/01/04 01:10:30;;;;;;;;;;;;;;;;;;1021834;29;19965;-78
2023/01/04 01:11:01;;;;;;;;;;;;;;;;;;1019134;29;19995;-79
2023/01/04 01:11:35;;;;;;;;;;;;;;;;;;1019230;29;19915;-78
2023/01/04 01:12:06;;;;;;;;;;;;;;;;;;1019185;29;19929;-78
2023/01/04 01:12:37;;;;;;;;;;;;;;;;;;1019129;29;19971;-78
2023/01/04 01:13:08;;;;;;;;;;;;;;;;;;1019738;29;19935;-78
2023/01/04 01:13:38;;;;;;;;;;;;;;;;;;1023138;28;19916;-80
2023/01/04 01:14:09;;;;;;;;;;;;;;;;;;1023108;29;19981;-78
2023/01/04 01:14:40;;;;;;;;;;;;;;;;;;1023037;29;19921;-77
2023/01/04 01:15:11;;;;;;;;;;;;;;;;;;1022785;28;19968;-78
2023/01/04 01:15:42;;;;;;;;;;;;;;;;;;1023280;28;19921;-79
2023/01/04 01:16:13;;;;;;;;;;;;;;;;;;1027100;28;19948;-79
2023/01/04 01:16:44;;;;;;;;;;;;;;;;;;1026917;28;20317;-78
2023/01/04 01:17:15;;;;;;;;;;;;;;;;;;1027676;28;19914;-78
2023/01/04 01:17:45;;;;;;;;;;;;;;;;;;1027419;28;19971;-77
2023/01/04 01:18:16;;;;;;;;;;;;;;;;;;1023034;29;19916;-78
2023/01/04 01:18:47;;;;;;;;;;;;;;;;;;1022889;29;19917;-78
2023/01/04 01:19:18;;;;;;;;;;;;;;;;;;1023072;29;20309;-78
2023/01/04 01:19:49;;;;;;;;;;;;;;;;;;1023293;28;20020;-78
2023/01/04 01:20:20;;;;;;;;;;;;;;;;;;1027112;28;19914;-78
2023/01/04 01:20:51;;;;;;;;;;;;;;;;;;1026893;28;19918;-78
2023/01/04 01:21:21;;;;;;;;;;;;;;;;;;1027007;28;19914;-78
2023/01/04 01:21:52;;;;;;;;;;;;;;;;;;1026709;28;20001;-79
2023/01/04 01:22:23;;;;;;;;;;;;;;;;;;1027194;28;20029;-78
2023/01/04 01:22:54;;;;;;;;;;;;;;;;;;1026996;28;19917;-79
2023/01/04 01:23:25;;;;;;;;;;;;;;;;;;1026898;28;20019;-78
2023/01/04 01:23:56;;;;;;;;;;;;;;;;;;1018932;29;19911;-78
2023/01/04 01:24:27;;;;;;;;;;;;;;;;;;1023489;29;20294;-78
2023/01/04 01:24:57;;;;;;;;;;;;;;;;;;1018855;29;19998;-79
2023/01/04 01:25:28;;;;;;;;;;;;;;;;;;1022762;29;19977;-78
2023/01/04 01:25:59;;;;;;;;;;;;;;;;;;1022873;29;19917;-78
2023/01/04 01:26:30;;;;;;;;;;;;;;;;;;1023175;29;19967;-78
2023/01/04 01:27:01;;;;;;;;;;;;;;;;;;1022677;29;19942;-78
2023/01/04 01:27:32;;;;;;;;;;;;;;;;;;1019052;29;20394;-78
2023/01/04 01:28:03;;;;;;;;;;;;;;;;;;1019234;29;19907;-78
2023/01/04 01:28:34;;;;;;;;;;;;;;;;;;1019253;29;20458;-79
2023/01/04 01:29:05;;;;;;;;;;;;;;;;;;1019339;29;19911;-78
2023/01/04 01:29:35;;;;;;;;;;;;;;;;;;1018950;29;20390;-77
2023/01/04 01:30:06;;;;;;;;;;;;;;;;;;1018457;29;19910;-77
2023/01/04 01:30:37;;;;;;;;;;;;;;;;;;1018958;29;20002;-78
2023/01/04 01:31:08;;;;;;;;;;;;;;;;;;1022363;28;19911;-77
2023/01/04 01:31:39;;;;;;;;;;;;;;;;;;1018518;29;19966;-79
2023/01/04 01:32:10;;;;;;;;;;;;;;;;;;1020376;29;20016;-78
2023/01/04 01:32:41;;;;;;;;;;;;;;;;;;1018912;29;19911;-78
2023/01/04 01:33:12;;;;;;;;;;;;;;;;;;1019343;29;19919;-78
2023/01/04 01:33:42;;;;;;;;;;;;;;;;;;1018936;29;20645;-78
2023/01/04 01:34:13;;;;;;;;;;;;;;;;;;1019367;29;19937;-78
2023/01/04 01:34:44;;;;;;;;;;;;;;;;;;1025521;28;20710;-78
2023/01/04 01:35:15;;;;;;;;;;;;;;;;;;1023057;29;20311;-79
2023/01/04 01:35:46;;;;;;;;;;;;;;;;;;1026096;28;19942;-78
2023/01/04 01:36:17;;;;;;;;;;;;;;;;;;1023191;29;19911;-78
2023/01/04 01:36:48;;;;;;;;;;;;;;;;;;1018933;29;20426;-78
2023/01/04 01:37:19;;;;;;;;;;;;;;;;;;1017391;29;20051;-78
2023/01/04 01:37:49;;;;;;;;;;;;;;;;;;1022913;29;20745;-78
2023/01/04 01:38:20;;;;;;;;;;;;;;;;;;1023476;29;19911;-79
2023/01/04 01:38:51;;;;;;;;;;;;;;;;;;1019126;29;20545;-77
2023/01/04 01:39:22;;;;;;;;;;;;;;;;;;1019168;29;19911;-79
2023/01/04 01:39:53;;;;;;;;;;;;;;;;;;1018555;29;19911;-78
2023/01/04 01:40:24;;;;;;;;;;;;;;;;;;1015230;29;19915;-77
2023/01/04 01:40:55;;;;;;;;;;;;;;;;;;1015468;29;19907;-78
2023/01/04 01:41:25;;;;;;;;;;;;;;;;;;1019340;29;20006;-78
2023/01/04 01:41:58;;;;;;;;;;;;;;;;;;1019264;29;19922;-77
2023/01/04 01:42:29;;;;;;;;;;;;;;;;;;1023410;28;20492;-77
2023/01/04 01:43:00;;;;;;;;;;;;;;;;;;1026936;28;20583;-78
2023/01/04 01:43:30;;;;;;;;;;;;;;;;;;1027402;28;19953;-77
2023/01/04 01:44:01;;;;;;;;;;;;;;;;;;1026646;28;19910;-78
2023/01/04 01:44:32;;;;;;;;;;;;;;;;;;1027174;28;19910;-77
2023/01/04 01:45:09;;;;;;;;;;;;;;;;;;1027005;28;19910;-78
2023/01/04 01:45:40;;;;;;;;;;;;;;;;;;1026771;28;20362;-78
2023/01/04 01:46:11;;;;;;;;;;;;;;;;;;1026165;28;20393;-78
2023/01/04 01:46:42;;;;;;;;;;;;;;;;;;1023149;29;19911;-79
2023/01/04 01:47:13;;;;;;;;;;;;;;;;;;1019204;29;20465;-78
2023/01/04 01:47:44;;;;;;;;;;;;;;;;;;1019002;29;19911;-77
2023/01/04 01:48:14;;;;;;;;;;;;;;;;;;1018989;29;20275;-77
2023/01/04 01:48:45;;;;;;;;;;;;;;;;;;1019588;29;20291;-77
2023/01/04 01:49:16;;;;;;;;;;;;;;;;;;1023229;28;19930;-77
2023/01/04 01:49:47;;;;;;;;;;;;;;;;;;1026773;28;20531;-77
2023/01/04 01:50:18;;;;;;;;;;;;;;;;;;1022973;29;19911;-76
2023/01/04 01:50:49;;;;;;;;;;;;;;;;;;1019213;29;20248;-77
2023/01/04 01:51:20;;;;;;;;;;;;;;;;;;1021468;29;19918;-77
2023/01/04 01:51:51;;;;;;;;;;;;;;;;;;1015167;29;20104;-77
2023/01/04 01:52:21;;;;;;;;;;;;;;;;;;1015371;29;19907;-78
2023/01/04 01:52:52;;;;;;;;;;;;;;;;;;1019474;28;19911;-78
2023/01/04 01:53:23;;;;;;;;;;;;;;;;;;1027036;28;20013;-77
2023/01/04 01:53:54;;;;;;;;;;;;;;;;;;1026980;28;19910;-79
2023/01/04 01:54:25;;;;;;;;;;;;;;;;;;1027194;28;19906;-78
2023/01/04 01:54:56;;;;;;;;;;;;;;;;;;1022705;28;20401;-77
2023/01/04 01:55:27;;;;;;;;;;;;;;;;;;1023039;29;19907;-78
2023/01/04 01:55:58;;;;;;;;;;;;;;;;;;1022751;29;19911;-77
2023/01/04 01:56:29;;;;;;;;;;;;;;;;;;1018995;29;20374;-79
2023/01/04 01:57:00;;;;;;;;;;;;;;;;;;1019035;29;19919;-77
2023/01/04 01:57:31;;;;;;;;;;;;;;;;;;1019132;29;20326;-78
2023/01/04 01:58:01;;;;;;;;;;;;;;;;;;1018264;29;20394;-77
2023/01/04 01:58:32;;;;;;;;;;;;;;;;;;1019257;29;19966;-78
2023/01/04 01:59:03;;;;;;;;;;;;;;;;;;1025115;28;19929;-77
2023/01/04 01:59:34;;;;;;;;;;;;;;;;;;1031195;28;19921;-78
2023/01/04 02:00:05;;;;;;;;;;;;;;;;;;1023190;28;19922;-77
2023/01/04 02:00:36;;;;;;;;;;;;;;;;;;1022937;29;19910;-78
2023/01/04 02:01:07;;;;;;;;;;;;;;;;;;1022831;29;20294;-77
2023/01/04 02:01:38;;;;;;;;;;;;;;;;;;1022840;29;19914;-78
2023/01/04 02:02:08;;;;;;;;;;;;;;;;;;1019069;29;20391;-78
2023/01/04 02:02:39;;;;;;;;;;;;;;;;;;1021083;29;20006;-78
2023/01/04 02:03:10;;;;;;;;;;;;;;;;;;1017765;29;20654;-77
2023/01/04 02:03:41;;;;;;;;;;;;;;;;;;1015314;29;19911;-77
2023/01/04 02:04:12;;;;;;;;;;;;;;;;;;1016067;29;19912;-79
2023/01/04 02:04:43;;;;;;;;;;;;;;;;;;1023392;28;19911;-78
2023/01/04 02:05:14;;;;;;;;;;;;;;;;;;1022980;29;19957;-78
2023/01/04 02:05:45;;;;;;;;;;;;;;;;;;1022867;29;19913;-78
2023/01/04 02:06:16;;;;;;;;;;;;;;;;;;1023029;29;20030;-77
2023/01/04 02:06:46;;;;;;;;;;;;;;;;;;1023100;29;19910;-77
2023/01/04 02:07:17;;;;;;;;;;;;;;;;;;1023213;28;19911;-78
2023/01/04 02:07:48;;;;;;;;;;;;;;;;;;1026761;28;20664;-78
2023/01/04 02:08:21;;;;;;;;;;;;;;;;;;1026861;28;19917;-78
2023/01/04 02:08:52;;;;;;;;;;;;;;;;;;1026948;28;19906;-78
2023/01/04 02:09:22;;;;;;;;;;;;;;;;;;1027187;28;19910;-77
2023/01/04 02:09:53;;;;;;;;;;;;;;;;;;1022833;29;19919;-78
2023/01/04 02:10:24;;;;;;;;;;;;;;;;;;1023054;29;20008;-77
2023/01/04 02:10:55;;;;;;;;;;;;;;;;;;1023102;29;19957;-77
2023/01/04 02:11:26;;;;;;;;;;;;;;;;;;1023538;28;20358;-78
2023/01/04 02:11:57;;;;;;;;;;;;;;;;;;1026599;28;19961;-79
2023/01/04 02:12:28;;;;;;;;;;;;;;;;;;1027197;28;19937;-78
2023/01/04 02:12:59;;;;;;;;;;;;;;;;;;1026815;28;20013;-78
2023/01/04 02:14:25;;;;;;;;;;;;;;;;;;1026788;28;19910;-77
2023/01/04 02:14:26;;;;;;;;;;;;;;;;;;1026989;28;20026;-77
2023/01/04 02:14:57;;;;;;;;;;;;;;;;;;1023282;28;19917;-78
2023/01/04 02:15:28;;;;;;;;;;;;;;;;;;1026851;28;19917;-78
2023/01/04 02:15:59;;;;;;;;;;;;;;;;;;1022959;29;19961;-79
2023/01/04 02:16:30;;;;;;;;;;;;;;;;;;1023071;29;19933;-78
2023/01/04 02:17:00;;;;;;;;;;;;;;;;;;1022816;28;19914;-77
2023/01/04 02:17:31;;;;;;;;;;;;;;;;;;1023141;28;19913;-78
2023/01/04 02:18:02;;;;;;;;;;;;;;;;;;1018934;29;20033;-78
2023/01/04 02:18:33;;;;;;;;;;;;;;;;;;1014894;29;20332;-78
2023/01/04 02:19:04;;;;;;;;;;;;;;;;;;1015558;29;19911;-78
2023/01/04 02:19:35;;;;;;;;;;;;;;;;;;1019490;29;20480;-79
2023/01/04 02:20:06;;;;;;;;;;;;;;;;;;1023020;28;19910;-77
2023/01/04 02:20:36;;;;;;;;;;;;;;;;;;1023135;29;19911;-78
2023/01/04 02:21:07;;;;;;;;;;;;;;;;;;1023003;29;20013;-78
2023/01/04 02:21:38;;;;;;;;;;;;;;;;;;1022984;29;19929;-79
2023/01/04 02:22:09;;;;;;;;;;;;;;;;;;1023040;28;19911;-77
2023/01/04 02:22:40;;;;;;;;;;;;;;;;;;1026942;28;19910;-78
2023/01/04 02:23:11;;;;;;;;;;;;;;;;;;1022950;29;20318;-78
2023/01/04 02:23:42;;;;;;;;;;;;;;;;;;1022964;29;20309;-77
2023/01/04 02:24:13;;;;;;;;;;;;;;;;;;1023018;29;20317;-78
2023/01/04 02:24:44;;;;;;;;;;;;;;;;;;1023350;28;20001;-78
2023/01/04 02:25:15;;;;;;;;;;;;;;;;;;1026784;28;19921;-79
2023/01/04 02:25:46;;;;;;;;;;;;;;;;;;1026563;28;20530;-79
2023/01/04 02:26:16;;;;;;;;;;;;;;;;;;1025018;28;20310;-79
2023/01/04 02:26:47;;;;;;;;;;;;;;;;;;1026967;28;19965;-78
2023/01/04 02:27:18;;;;;;;;;;;;;;;;;;1022717;29;19918;-78
2023/01/04 02:27:49;;;;;;;;;;;;;;;;;;1022868;29;20258;-78
2023/01/04 02:28:20;;;;;;;;;;;;;;;;;;1023239;29;19969;-77
2023/01/04 02:28:51;;;;;;;;;;;;;;;;;;1023172;29;20013;-78
2023/01/04 02:29:22;;;;;;;;;;;;;;;;;;1023125;28;20007;-77
2023/01/04 02:29:52;;;;;;;;;;;;;;;;;;1026001;28;20016;-78
2023/01/04 02:30:23;;;;;;;;;;;;;;;;;;1027388;28;19914;-78
2023/01/04 02:30:54;;;;;;;;;;;;;;;;;;1022915;29;19944;-78
2023/01/04 02:31:25;;;;;;;;;;;;;;;;;;1019104;29;19915;-78
2023/01/04 02:31:56;;;;;;;;;;;;;;;;;;1020790;29;19921;-78
2023/01/04 02:32:27;;;;;;;;;;;;;;;;;;1023231;29;20018;-77
2023/01/04 02:32:58;;;;;;;;;;;;;;;;;;1022845;28;19960;-79
2023/01/04 02:33:29;;;;;;;;;;;;;;;;;;1022943;28;20026;-78
2023/01/04 02:34:00;;;;;;;;;;;;;;;;;;1023156;29;19942;-78
2023/01/04 02:34:31;;;;;;;;;;;;;;;;;;1023115;29;20013;-78
2023/01/04 02:35:02;;;;;;;;;;;;;;;;;;1023085;29;20563;-78
2023/01/04 02:35:32;;;;;;;;;;;;;;;;;;1019161;29;20441;-78
2023/01/04 02:36:03;;;;;;;;;;;;;;;;;;1020671;28;19919;-79
2023/01/04 02:36:36;;;;;;;;;;;;;;;;;;1019605;29;20707;-78
2023/01/04 02:37:07;;;;;;;;;;;;;;;;;;1019676;29;20488;-78
2023/01/04 02:37:38;;;;;;;;;;;;;;;;;;1023001;28;20465;-78
2023/01/04 02:38:09;;;;;;;;;;;;;;;;;;1023581;28;19990;-79
2023/01/04 02:38:40;;;;;;;;;;;;;;;;;;1023020;29;19914;-78
2023/01/04 02:39:11;;;;;;;;;;;;;;;;;;1022974;29;19950;-78
2023/01/04 02:39:41;;;;;;;;;;;;;;;;;;1023019;28;19915;-78
2023/01/04 02:40:12;;;;;;;;;;;;;;;;;;1023347;28;20382;-79
2023/01/04 02:40:43;;;;;;;;;;;;;;;;;;1027011;28;19914;-80
2023/01/04 02:41:14;;;;;;;;;;;;;;;;;;1027000;28;20368;-78
2023/01/04 02:41:45;;;;;;;;;;;;;;;;;;1027057;28;20048;-79
2023/01/04 02:42:16;;;;;;;;;;;;;;;;;;1027161;28;20316;-79
2023/01/04 02:45:16;;;;;;;;;;;;;;;;;;1024091;29;19953;-79
2023/01/04 02:45:47;;;;;;;;;;;;;;;;;;1027101;28;19918;-78
2023/01/04 02:46:18;;;;;;;;;;;;;;;;;;1023770;29;20440;-79
2023/01/04 02:46:49;;;;;;;;;;;;;;;;;;1023881;29;19915;-79
2023/01/04 02:50:29;;;;;;;;;;;;;;;;;;1023979;29;20429;-78
2023/01/04 02:50:40;;;;;;;;;;;;;;;;;;1024246;29;19921;-78
2023/01/04 02:51:10;;;;;;;;;;;;;;;;;;1019796;29;19911;-78
2023/01/04 02:51:41;;;;;;;;;;;;;;;;;;1023338;29;20066;-78
2023/01/04 02:52:12;;;;;;;;;;;;;;;;;;1023864;29;19910;-78
2023/01/04 02:52:43;;;;;;;;;;;;;;;;;;1019808;29;19919;-78
2023/01/04 02:53:14;;;;;;;;;;;;;;;;;;1019985;29;19914;-79
2023/01/04 02:53:45;;;;;;;;;;;;;;;;;;1023770;29;19974;-79
2023/01/04 02:54:16;;;;;;;;;;;;;;;;;;1024011;28;19921;-79
2023/01/04 02:54:47;;;;;;;;;;;;;;;;;;1027710;28;20009;-78
2023/01/04 02:55:18;;;;;;;;;;;;;;;;;;1023522;29;19914;-79
2023/01/04 02:55:49;;;;;;;;;;;;;;;;;;1019845;29;19911;-79
2023/01/04 02:56:34;;;;;;;;;;;;;;;;;;1023955;29;20057;-79
2023/01/04 02:57:05;;;;;;;;;;;;;;;;;;1023930;29;19911;-78
2023/01/04 02:57:35;;;;;;;;;;;;;;;;;;1025881;28;19968;-78
2023/01/04 02:58:06;;;;;;;;;;;;;;;;;;1027806;28;19910;-78
2023/01/04 02:58:37;;;;;;;;;;;;;;;;;;1027733;28;19977;-79
2023/01/04 02:59:08;;;;;;;;;;;;;;;;;;1023583;29;19906;-79
2023/01/04 02:59:39;;;;;;;;;;;;;;;;;;1023859;29;19906;-79
2023/01/04 03:00:10;;;;;;;;;;;;;;;;;;1020108;29;19989;-78
2023/01/04 03:06:14;;;;;;;;;;;;;;;;;;1020090;29;19918;-79
2023/01/04 03:06:43;;;;;;;;;;;;;;;;;;1019520;29;20744;-79
2023/01/04 03:07:14;;;;;;;;;;;;;;;;;;1019500;29;20322;-79
2023/01/04 03:07:45;;;;;;;;;;;;;;;;;;1021058;29;20037;-79
2023/01/04 03:08:16;;;;;;;;;;;;;;;;;;1023904;29;20389;-78
2023/01/04 03:08:47;;;;;;;;;;;;;;;;;;1023660;28;19914;-78
2023/01/04 03:09:18;;;;;;;;;;;;;;;;;;1023820;29;20381;-77
2023/01/04 03:09:48;;;;;;;;;;;;;;;;;;1019715;29;19917;-79
2023/01/04 03:10:19;;;;;;;;;;;;;;;;;;1022176;28;19911;-78
2023/01/04 03:10:50;;;;;;;;;;;;;;;;;;1023708;29;19915;-79
2023/01/04 03:13:00;;;;;;;;;;;;;;;;;;1028121;28;19917;-79
2023/01/04 03:13:31;;;;;;;;;;;;;;;;;;1027173;28;20005;-79
2023/01/04 03:14:02;;;;;;;;;;;;;;;;;;1024013;29;19915;-78
2023/01/04 03:14:33;;;;;;;;;;;;;;;;;;1028204;28;19914;-78
2023/01/04 03:15:04;;;;;;;;;;;;;;;;;;1028241;28;19910;-79
2023/01/04 03:15:34;;;;;;;;;;;;;;;;;;1027497;28;20418;-79
2023/01/04 03:16:05;;;;;;;;;;;;;;;;;;1024160;29;19911;-79
2023/01/04 03:16:36;;;;;;;;;;;;;;;;;;1019652;29;19962;-78
2023/01/04 03:17:07;;;;;;;;;;;;;;;;;;1015785;29;19949;-78
2023/01/04 03:17:38;;;;;;;;;;;;;;;;;;1017223;29;19915;-79
2023/01/04 03:18:09;;;;;;;;;;;;;;;;;;1020066;29;19915;-78
2023/01/04 03:18:40;;;;;;;;;;;;;;;;;;1023500;29;19926;-79
2023/01/04 03:19:11;;;;;;;;;;;;;;;;;;1023943;28;20632;-79
2023/01/04 03:19:50;;;;;;;;;;;;;;;;;;1023586;29;19938;-78
2023/01/04 03:20:21;;;;;;;;;;;;;;;;;;1023839;29;20321;-79
2023/01/04 03:20:52;;;;;;;;;;;;;;;;;;1023762;29;20445;-79
2023/01/04 03:21:23;;;;;;;;;;;;;;;;;;1023731;29;19914;-79
2023/01/04 03:21:54;;;;;;;;;;;;;;;;;;1023577;29;20375;-80
2023/01/04 03:35:39;;;;;;;;;;;;;;;;;;1027964;28;20372;-79
2023/01/04 03:36:10;;;;;;;;;;;;;;;;;;1023982;29;20350;-78
2023/01/04 03:36:41;;;;;;;;;;;;;;;;;;1023906;29;19961;-80
2023/01/04 03:37:12;;;;;;;;;;;;;;;;;;1023506;29;20009;-79
2023/01/04 03:37:43;;;;;;;;;;;;;;;;;;1023785;28;19972;-78
2023/01/04 03:48:59;;;;;;;;;;;;;;;;;;1028115;28;19949;-79
2023/01/04 03:49:30;;;;;;;;;;;;;;;;;;1023917;29;19915;-80
2023/01/04 03:50:01;;;;;;;;;;;;;;;;;;1023606;29;20001;-79
2023/01/04 03:50:32;;;;;;;;;;;;;;;;;;1023863;29;19914;-78
2023/01/04 03:51:03;;;;;;;;;;;;;;;;;;1023649;29;20310;-79
2023/01/04 03:51:34;;;;;;;;;;;;;;;;;;1023574;29;19915;-78
2023/01/04 03:52:05;;;;;;;;;;;;;;;;;;1023741;29;20274;-79
2023/01/04 03:52:36;;;;;;;;;;;;;;;;;;1019762;29;19979;-79
2023/01/04 03:53:07;;;;;;;;;;;;;;;;;;1023386;29;20365;-79
2023/01/04 03:53:37;;;;;;;;;;;;;;;;;;1019822;29;19946;-78
2023/01/04 03:54:08;;;;;;;;;;;;;;;;;;1020068;29;19995;-78
2023/01/04 03:54:39;;;;;;;;;;;;;;;;;;1019137;29;19911;-78
2023/01/04 03:55:10;;;;;;;;;;;;;;;;;;1019876;29;20009;-79
2023/01/04 03:55:41;;;;;;;;;;;;;;;;;;1023711;28;19910;-79
2023/01/04 03:56:12;;;;;;;;;;;;;;;;;;1023578;29;20685;-79
2023/01/04 03:56:43;;;;;;;;;;;;;;;;;;1023584;29;19910;-79
2023/01/04 03:57:14;;;;;;;;;;;;;;;;;;1023843;29;19914;-79
2023/01/04 03:57:44;;;;;;;;;;;;;;;;;;1019725;29;20001;-79
2023/01/04 03:58:15;;;;;;;;;;;;;;;;;;1023955;28;19906;-79
2023/01/04 03:58:46;;;;;;;;;;;;;;;;;;1027690;28;20000;-79
2023/01/04 03:59:17;;;;;;;;;;;;;;;;;;1027804;28;20374;-79
2023/01/04 03:59:48;;;;;;;;;;;;;;;;;;1020794;29;19917;-80
2023/01/04 04:00:19;;;;;;;;;;;;;;;;;;1019810;29;19911;-78
2023/01/04 04:00:50;;;;;;;;;;;;;;;;;;1019419;29;19907;-78
2023/01/04 04:01:21;;;;;;;;;;;;;;;;;;1021422;29;19928;-78
2023/01/04 04:01:51;;;;;;;;;;;;;;;;;;1025538;28;20025;-78
2023/01/04 04:02:22;;;;;;;;;;;;;;;;;;1023693;29;19907;-79
2023/01/04 04:02:53;;;;;;;;;;;;;;;;;;1023310;29;19915;-78
2023/01/04 04:03:24;;;;;;;;;;;;;;;;;;1023776;28;19921;-78
2023/01/04 04:08:53;;;;;;;;;;;;;;;;;;1024265;29;19921;-80
2023/01/04 04:09:23;;;;;;;;;;;;;;;;;;1024357;29;19914;-77
2023/01/04 04:09:54;;;;;;;;;;;;;;;;;;1023921;29;19938;-78
2023/01/04 04:10:25;;;;;;;;;;;;;;;;;;1027486;28;19910;-79
2023/01/04 04:10:56;;;;;;;;;;;;;;;;;;1023550;28;19914;-79
2023/01/04 04:11:30;;;;;;;;;;;;;;;;;;1023406;28;19914;-78
2023/01/04 04:12:01;;;;;;;;;;;;;;;;;;1019551;29;19919;-78
2023/01/04 04:12:32;;;;;;;;;;;;;;;;;;1019773;29;19923;-79
2023/01/04 04:13:03;;;;;;;;;;;;;;;;;;1020413;29;19914;-78
2023/01/04 04:13:33;;;;;;;;;;;;;;;;;;1019871;29;19921;-79